sensor_id;sensor_type;location;lat;lon;timestamp;P1;durP1;ratioP1;P2;durP2;ratioP2
25990;SDS011;13779;-33.886;151.198;2022-10-16T00:02:01;6.28;;;1.42;;
25990;SDS011;13779;-33.886;151.198;2022-10-16T00:04:31;7.60;;;1.92;;
25990;SDS011;13779;-33.886;151.198;2022-10-16T00:07:01;5.32;;;1.73;;
25990;SDS011;13779;-33.886;151.198;2022-10-16T00:09:31;5.35;;;1.40;;
25990;SDS011;13779;-33.886;151.198;2022-10-16T00:12:01;2.95;;;1.30;;
25990;SDS011;13779;-33.886;151.198;2022-10-16T00:14:32;6.85;;;1.48;;
25990;SDS011;13779;-33.886;151.198;2022-10-16T00:17:02;8.40;;;2.20;;
25990;SDS011;13779;-33.886;151.198;2022-10-16T00:19:32;7.38;;;1.58;;
25990;SDS011;13779;-33.886;151.198;2022-10-16T00:22:02;8.70;;;3.42;;
25990;SDS011;13779;-33.886;151.198;2022-10-16T00:24:32;7.00;;;2.40;;
25990;SDS011;13779;-33.886;151.198;2022-10-16T00:27:03;6.90;;;2.03;;
25990;SDS011;13779;-33.886;151.198;2022-10-16T00:29:33;7.93;;;2.38;;
25990;SDS011;13779;-33.886;151.198;2022-10-16T00:32:03;8.55;;;2.00;;
25990;SDS011;13779;-33.886;151.198;2022-10-16T00:34:33;5.88;;;2.00;;
25990;SDS011;13779;-33.886;151.198;2022-10-16T00:37:03;10.77;;;2.85;;
25990;SDS011;13779;-33.886;151.198;2022-10-16T00:39:33;8.10;;;1.70;;
25990;SDS011;13779;-33.886;151.198;2022-10-16T00:42:03;8.10;;;1.65;;
25990;SDS011;13779;-33.886;151.198;2022-10-16T00:45:08;4.55;;;1.40;;
25990;SDS011;13779;-33.886;151.198;2022-10-16T00:47:30;6.95;;;1.58;;
25990;SDS011;13779;-33.886;151.198;2022-10-16T00:50:33;8.13;;;2.08;;
25990;SDS011;13779;-33.886;151.198;2022-10-16T00:53:03;6.55;;;1.48;;
25990;SDS011;13779;-33.886;151.198;2022-10-16T00:55:33;8.50;;;2.03;;
25990;SDS011;13779;-33.886;151.198;2022-10-16T00:58:07;7.75;;;2.85;;
25990;SDS011;13779;-33.886;151.198;2022-10-16T01:00:38;6.72;;;1.75;;
25990;SDS011;13779;-33.886;151.198;2022-10-16T01:03:25;8.20;;;2.30;;
25990;SDS011;13779;-33.886;151.198;2022-10-16T01:06:08;8.23;;;1.55;;
25990;SDS011;13779;-33.886;151.198;2022-10-16T01:12:10;10.55;;;2.58;;
25990;SDS011;13779;-33.886;151.198;2022-10-16T01:18:47;8.43;;;1.30;;
25990;SDS011;13779;-33.886;151.198;2022-10-16T01:20:53;9.30;;;1.50;;
25990;SDS011;13779;-33.886;151.198;2022-10-16T01:23:59;6.32;;;3.17;;
25990;SDS011;13779;-33.886;151.198;2022-10-16T01:27:08;7.05;;;1.55;;
25990;SDS011;13779;-33.886;151.198;2022-10-16T01:33:21;9.63;;;3.03;;
25990;SDS011;13779;-33.886;151.198;2022-10-16T01:35:36;6.47;;;1.80;;
25990;SDS011;13779;-33.886;151.198;2022-10-16T01:38:25;4.63;;;1.70;;
25990;SDS011;13779;-33.886;151.198;2022-10-16T01:41:38;8.13;;;1.80;;
25990;SDS011;13779;-33.886;151.198;2022-10-16T01:44:17;6.80;;;1.58;;
25990;SDS011;13779;-33.886;151.198;2022-10-16T01:46:50;4.47;;;1.77;;
25990;SDS011;13779;-33.886;151.198;2022-10-16T01:49:23;12.80;;;4.43;;
25990;SDS011;13779;-33.886;151.198;2022-10-16T01:51:59;5.03;;;1.85;;
25990;SDS011;13779;-33.886;151.198;2022-10-16T01:54:33;3.85;;;0.88;;
25990;SDS011;13779;-33.886;151.198;2022-10-16T01:57:06;8.48;;;4.20;;
25990;SDS011;13779;-33.886;151.198;2022-10-16T01:59:40;9.00;;;1.60;;
25990;SDS011;13779;-33.886;151.198;2022-10-16T02:02:17;8.35;;;1.70;;
25990;SDS011;13779;-33.886;151.198;2022-10-16T02:04:49;11.30;;;4.35;;
25990;SDS011;13779;-33.886;151.198;2022-10-16T02:07:23;8.38;;;2.65;;
25990;SDS011;13779;-33.886;151.198;2022-10-16T02:09:54;6.35;;;1.90;;
25990;SDS011;13779;-33.886;151.198;2022-10-16T02:12:28;8.45;;;2.90;;
25990;SDS011;13779;-33.886;151.198;2022-10-16T02:15:01;8.02;;;2.42;;
25990;SDS011;13779;-33.886;151.198;2022-10-16T02:17:32;7.32;;;3.38;;
25990;SDS011;13779;-33.886;151.198;2022-10-16T02:20:02;8.40;;;2.80;;
25990;SDS011;13779;-33.886;151.198;2022-10-16T02:22:39;12.52;;;2.60;;
25990;SDS011;13779;-33.886;151.198;2022-10-16T02:25:26;8.02;;;2.50;;
25990;SDS011;13779;-33.886;151.198;2022-10-16T02:33:11;9.18;;;2.38;;
25990;SDS011;13779;-33.886;151.198;2022-10-16T02:35:44;14.05;;;4.57;;
25990;SDS011;13779;-33.886;151.198;2022-10-16T02:38:19;7.10;;;1.83;;
25990;SDS011;13779;-33.886;151.198;2022-10-16T02:40:51;5.72;;;1.30;;
25990;SDS011;13779;-33.886;151.198;2022-10-16T02:43:22;6.45;;;1.48;;
25990;SDS011;13779;-33.886;151.198;2022-10-16T02:45:53;8.18;;;2.80;;
25990;SDS011;13779;-33.886;151.198;2022-10-16T02:48:24;11.40;;;2.65;;
25990;SDS011;13779;-33.886;151.198;2022-10-16T02:50:55;6.20;;;1.33;;
25990;SDS011;13779;-33.886;151.198;2022-10-16T02:53:25;5.53;;;1.50;;
25990;SDS011;13779;-33.886;151.198;2022-10-16T02:55:55;9.70;;;2.13;;
25990;SDS011;13779;-33.886;151.198;2022-10-16T02:58:26;7.25;;;2.50;;
25990;SDS011;13779;-33.886;151.198;2022-10-16T03:00:56;11.00;;;3.80;;
25990;SDS011;13779;-33.886;151.198;2022-10-16T03:03:27;11.30;;;3.50;;
25990;SDS011;13779;-33.886;151.198;2022-10-16T03:05:57;7.47;;;2.58;;
25990;SDS011;13779;-33.886;151.198;2022-10-16T03:08:28;6.57;;;1.60;;
25990;SDS011;13779;-33.886;151.198;2022-10-16T03:10:58;10.30;;;2.03;;
25990;SDS011;13779;-33.886;151.198;2022-10-16T03:13:29;6.97;;;1.90;;
25990;SDS011;13779;-33.886;151.198;2022-10-16T03:15:59;10.43;;;3.03;;
25990;SDS011;13779;-33.886;151.198;2022-10-16T03:18:30;9.20;;;1.80;;
25990;SDS011;13779;-33.886;151.198;2022-10-16T03:21:01;10.98;;;2.95;;
25990;SDS011;13779;-33.886;151.198;2022-10-16T03:23:31;12.10;;;3.77;;
25990;SDS011;13779;-33.886;151.198;2022-10-16T03:26:01;10.20;;;2.23;;
25990;SDS011;13779;-33.886;151.198;2022-10-16T03:28:32;6.67;;;1.70;;
25990;SDS011;13779;-33.886;151.198;2022-10-16T03:31:03;8.82;;;2.47;;
25990;SDS011;13779;-33.886;151.198;2022-10-16T03:33:33;7.47;;;2.45;;
25990;SDS011;13779;-33.886;151.198;2022-10-16T03:36:04;5.97;;;2.05;;
25990;SDS011;13779;-33.886;151.198;2022-10-16T03:38:35;10.25;;;3.03;;
25990;SDS011;13779;-33.886;151.198;2022-10-16T03:41:05;6.85;;;2.28;;
25990;SDS011;13779;-33.886;151.198;2022-10-16T03:43:36;7.68;;;2.50;;
25990;SDS011;13779;-33.886;151.198;2022-10-16T03:46:06;9.00;;;3.03;;
25990;SDS011;13779;-33.886;151.198;2022-10-16T03:48:37;11.10;;;3.90;;
25990;SDS011;13779;-33.886;151.198;2022-10-16T03:53:38;11.63;;;3.88;;
25990;SDS011;13779;-33.886;151.198;2022-10-16T03:56:08;8.93;;;2.97;;
25990;SDS011;13779;-33.886;151.198;2022-10-16T03:58:38;10.77;;;2.67;;
25990;SDS011;13779;-33.886;151.198;2022-10-16T04:01:09;9.80;;;3.30;;
25990;SDS011;13779;-33.886;151.198;2022-10-16T04:03:39;7.40;;;2.63;;
25990;SDS011;13779;-33.886;151.198;2022-10-16T04:06:10;9.07;;;1.90;;
25990;SDS011;13779;-33.886;151.198;2022-10-16T04:08:42;6.77;;;2.57;;
25990;SDS011;13779;-33.886;151.198;2022-10-16T04:11:13;10.52;;;2.53;;
25990;SDS011;13779;-33.886;151.198;2022-10-16T04:13:43;6.63;;;1.92;;
25990;SDS011;13779;-33.886;151.198;2022-10-16T04:16:13;11.50;;;4.20;;
25990;SDS011;13779;-33.886;151.198;2022-10-16T04:18:44;11.17;;;3.67;;
25990;SDS011;13779;-33.886;151.198;2022-10-16T04:21:15;11.95;;;3.67;;
25990;SDS011;13779;-33.886;151.198;2022-10-16T04:23:46;12.68;;;3.97;;
25990;SDS011;13779;-33.886;151.198;2022-10-16T04:28:47;9.95;;;2.85;;
25990;SDS011;13779;-33.886;151.198;2022-10-16T04:31:18;7.37;;;2.83;;
25990;SDS011;13779;-33.886;151.198;2022-10-16T04:33:48;9.02;;;1.75;;
25990;SDS011;13779;-33.886;151.198;2022-10-16T04:36:19;7.47;;;2.20;;
25990;SDS011;13779;-33.886;151.198;2022-10-16T04:38:50;6.05;;;1.50;;
25990;SDS011;13779;-33.886;151.198;2022-10-16T04:41:20;8.03;;;2.80;;
25990;SDS011;13779;-33.886;151.198;2022-10-16T04:43:51;10.83;;;3.90;;
25990;SDS011;13779;-33.886;151.198;2022-10-16T04:46:21;8.77;;;2.83;;
25990;SDS011;13779;-33.886;151.198;2022-10-16T04:48:52;13.07;;;3.37;;
25990;SDS011;13779;-33.886;151.198;2022-10-16T04:51:22;10.57;;;2.42;;
25990;SDS011;13779;-33.886;151.198;2022-10-16T04:56:23;4.57;;;1.30;;
25990;SDS011;13779;-33.886;151.198;2022-10-16T04:58:54;5.55;;;1.60;;
25990;SDS011;13779;-33.886;151.198;2022-10-16T05:01:25;9.93;;;2.33;;
25990;SDS011;13779;-33.886;151.198;2022-10-16T05:03:55;7.33;;;2.47;;
25990;SDS011;13779;-33.886;151.198;2022-10-16T05:06:26;6.72;;;1.88;;
25990;SDS011;13779;-33.886;151.198;2022-10-16T05:08:56;7.03;;;2.85;;
25990;SDS011;13779;-33.886;151.198;2022-10-16T05:11:26;7.53;;;3.10;;
25990;SDS011;13779;-33.886;151.198;2022-10-16T05:13:57;10.95;;;2.92;;
25990;SDS011;13779;-33.886;151.198;2022-10-16T05:16:28;7.65;;;2.70;;
25990;SDS011;13779;-33.886;151.198;2022-10-16T05:18:59;9.07;;;3.10;;
25990;SDS011;13779;-33.886;151.198;2022-10-16T05:24:20;11.43;;;3.00;;
25990;SDS011;13779;-33.886;151.198;2022-10-16T05:26:50;5.60;;;1.70;;
25990;SDS011;13779;-33.886;151.198;2022-10-16T05:29:21;5.00;;;1.60;;
25990;SDS011;13779;-33.886;151.198;2022-10-16T05:31:52;8.50;;;2.20;;
25990;SDS011;13779;-33.886;151.198;2022-10-16T05:34:23;9.25;;;1.50;;
25990;SDS011;13779;-33.886;151.198;2022-10-16T05:36:53;9.53;;;2.13;;
25990;SDS011;13779;-33.886;151.198;2022-10-16T05:39:23;6.10;;;1.90;;
25990;SDS011;13779;-33.886;151.198;2022-10-16T05:41:54;9.77;;;2.53;;
25990;SDS011;13779;-33.886;151.198;2022-10-16T05:44:24;8.33;;;1.90;;
25990;SDS011;13779;-33.886;151.198;2022-10-16T05:46:55;5.50;;;1.60;;
25990;SDS011;13779;-33.886;151.198;2022-10-16T05:49:25;6.93;;;2.33;;
25990;SDS011;13779;-33.886;151.198;2022-10-16T05:51:56;5.80;;;2.03;;
25990;SDS011;13779;-33.886;151.198;2022-10-16T05:54:26;6.25;;;1.45;;
25990;SDS011;13779;-33.886;151.198;2022-10-16T05:56:57;9.27;;;1.23;;
25990;SDS011;13779;-33.886;151.198;2022-10-16T05:59:27;6.22;;;1.55;;
25990;SDS011;13779;-33.886;151.198;2022-10-16T06:01:57;6.00;;;2.30;;
25990;SDS011;13779;-33.886;151.198;2022-10-16T06:04:28;6.55;;;1.48;;
25990;SDS011;13779;-33.886;151.198;2022-10-16T06:06:58;5.13;;;1.13;;
25990;SDS011;13779;-33.886;151.198;2022-10-16T06:09:29;6.40;;;1.52;;
25990;SDS011;13779;-33.886;151.198;2022-10-16T06:11:59;7.85;;;1.58;;
25990;SDS011;13779;-33.886;151.198;2022-10-16T06:14:30;3.65;;;1.23;;
25990;SDS011;13779;-33.886;151.198;2022-10-16T06:17:01;7.32;;;2.58;;
25990;SDS011;13779;-33.886;151.198;2022-10-16T06:19:32;6.93;;;2.97;;
25990;SDS011;13779;-33.886;151.198;2022-10-16T06:22:02;13.80;;;4.10;;
25990;SDS011;13779;-33.886;151.198;2022-10-16T06:24:32;9.83;;;2.87;;
25990;SDS011;13779;-33.886;151.198;2022-10-16T06:27:03;8.00;;;1.90;;
25990;SDS011;13779;-33.886;151.198;2022-10-16T06:29:34;10.15;;;2.03;;
25990;SDS011;13779;-33.886;151.198;2022-10-16T06:32:04;9.63;;;3.33;;
25990;SDS011;13779;-33.886;151.198;2022-10-16T06:34:35;11.90;;;3.13;;
25990;SDS011;13779;-33.886;151.198;2022-10-16T06:37:06;11.90;;;7.05;;
25990;SDS011;13779;-33.886;151.198;2022-10-16T06:39:37;8.73;;;3.67;;
25990;SDS011;13779;-33.886;151.198;2022-10-16T06:42:07;10.52;;;4.95;;
25990;SDS011;13779;-33.886;151.198;2022-10-16T06:44:38;12.85;;;6.13;;
25990;SDS011;13779;-33.886;151.198;2022-10-16T06:47:08;10.23;;;4.43;;
25990;SDS011;13779;-33.886;151.198;2022-10-16T06:49:38;17.48;;;6.13;;
25990;SDS011;13779;-33.886;151.198;2022-10-16T06:52:09;9.73;;;4.87;;
25990;SDS011;13779;-33.886;151.198;2022-10-16T06:54:39;6.87;;;2.70;;
25990;SDS011;13779;-33.886;151.198;2022-10-16T06:57:10;7.50;;;3.20;;
25990;SDS011;13779;-33.886;151.198;2022-10-16T06:59:40;14.27;;;5.57;;
25990;SDS011;13779;-33.886;151.198;2022-10-16T07:02:12;10.57;;;5.25;;
25990;SDS011;13779;-33.886;151.198;2022-10-16T07:04:43;11.65;;;4.78;;
25990;SDS011;13779;-33.886;151.198;2022-10-16T07:07:13;12.05;;;4.35;;
25990;SDS011;13779;-33.886;151.198;2022-10-16T07:09:44;15.20;;;5.47;;
25990;SDS011;13779;-33.886;151.198;2022-10-16T07:12:14;11.48;;;4.70;;
25990;SDS011;13779;-33.886;151.198;2022-10-16T07:14:45;13.23;;;5.67;;
25990;SDS011;13779;-33.886;151.198;2022-10-16T07:17:16;11.02;;;4.15;;
25990;SDS011;13779;-33.886;151.198;2022-10-16T07:19:46;7.50;;;3.17;;
25990;SDS011;13779;-33.886;151.198;2022-10-16T07:22:17;8.57;;;3.10;;
25990;SDS011;13779;-33.886;151.198;2022-10-16T07:24:48;8.38;;;3.22;;
25990;SDS011;13779;-33.886;151.198;2022-10-16T07:27:20;6.85;;;2.50;;
25990;SDS011;13779;-33.886;151.198;2022-10-16T07:29:52;7.63;;;1.92;;
25990;SDS011;13779;-33.886;151.198;2022-10-16T07:32:22;6.37;;;1.63;;
25990;SDS011;13779;-33.886;151.198;2022-10-16T07:34:54;8.85;;;2.20;;
25990;SDS011;13779;-33.886;151.198;2022-10-16T07:37:24;6.27;;;2.47;;
25990;SDS011;13779;-33.886;151.198;2022-10-16T07:39:55;8.25;;;1.60;;
25990;SDS011;13779;-33.886;151.198;2022-10-16T07:42:26;12.27;;;2.28;;
25990;SDS011;13779;-33.886;151.198;2022-10-16T07:44:57;5.10;;;1.52;;
25990;SDS011;13779;-33.886;151.198;2022-10-16T07:47:28;8.60;;;2.08;;
25990;SDS011;13779;-33.886;151.198;2022-10-16T07:49:58;10.90;;;2.60;;
25990;SDS011;13779;-33.886;151.198;2022-10-16T07:52:29;6.97;;;1.85;;
25990;SDS011;13779;-33.886;151.198;2022-10-16T07:54:59;7.07;;;1.90;;
25990;SDS011;13779;-33.886;151.198;2022-10-16T07:57:29;7.65;;;1.85;;
25990;SDS011;13779;-33.886;151.198;2022-10-16T08:00:00;9.53;;;2.10;;
25990;SDS011;13779;-33.886;151.198;2022-10-16T08:02:31;6.22;;;1.52;;
25990;SDS011;13779;-33.886;151.198;2022-10-16T08:05:01;7.35;;;2.08;;
25990;SDS011;13779;-33.886;151.198;2022-10-16T08:07:32;5.15;;;1.40;;
25990;SDS011;13779;-33.886;151.198;2022-10-16T08:10:03;6.00;;;1.63;;
25990;SDS011;13779;-33.886;151.198;2022-10-16T08:12:34;6.25;;;1.63;;
25990;SDS011;13779;-33.886;151.198;2022-10-16T08:15:04;9.10;;;2.17;;
25990;SDS011;13779;-33.886;151.198;2022-10-16T08:17:35;8.13;;;1.98;;
25990;SDS011;13779;-33.886;151.198;2022-10-16T08:20:06;10.40;;;1.95;;
25990;SDS011;13779;-33.886;151.198;2022-10-16T08:22:37;5.70;;;1.95;;
25990;SDS011;13779;-33.886;151.198;2022-10-16T08:25:08;6.27;;;2.50;;
25990;SDS011;13779;-33.886;151.198;2022-10-16T08:27:38;3.10;;;1.40;;
25990;SDS011;13779;-33.886;151.198;2022-10-16T08:30:09;16.13;;;5.85;;
25990;SDS011;13779;-33.886;151.198;2022-10-16T08:32:40;6.95;;;1.80;;
25990;SDS011;13779;-33.886;151.198;2022-10-16T08:35:11;8.95;;;2.85;;
25990;SDS011;13779;-33.886;151.198;2022-10-16T08:37:43;7.80;;;2.03;;
25990;SDS011;13779;-33.886;151.198;2022-10-16T08:40:24;7.53;;;1.73;;
25990;SDS011;13779;-33.886;151.198;2022-10-16T08:48:54;7.10;;;1.98;;
25990;SDS011;13779;-33.886;151.198;2022-10-16T08:51:31;7.30;;;2.13;;
25990;SDS011;13779;-33.886;151.198;2022-10-16T08:54:09;7.55;;;1.95;;
25990;SDS011;13779;-33.886;151.198;2022-10-16T08:56:50;8.43;;;1.42;;
25990;SDS011;13779;-33.886;151.198;2022-10-16T08:59:22;5.22;;;1.90;;
25990;SDS011;13779;-33.886;151.198;2022-10-16T09:01:53;5.43;;;1.55;;
25990;SDS011;13779;-33.886;151.198;2022-10-16T09:07:26;7.07;;;1.40;;
25990;SDS011;13779;-33.886;151.198;2022-10-16T09:12:45;6.93;;;1.70;;
25990;SDS011;13779;-33.886;151.198;2022-10-16T09:18:02;8.13;;;1.88;;
25990;SDS011;13779;-33.886;151.198;2022-10-16T09:23:30;7.50;;;1.30;;
25990;SDS011;13779;-33.886;151.198;2022-10-16T09:26:09;5.38;;;1.38;;
25990;SDS011;13779;-33.886;151.198;2022-10-16T09:28:42;7.88;;;1.23;;
25990;SDS011;13779;-33.886;151.198;2022-10-16T09:31:17;6.03;;;1.67;;
25990;SDS011;13779;-33.886;151.198;2022-10-16T09:33:57;10.73;;;2.40;;
25990;SDS011;13779;-33.886;151.198;2022-10-16T09:36:29;4.88;;;1.50;;
25990;SDS011;13779;-33.886;151.198;2022-10-16T09:39:11;6.43;;;1.58;;
25990;SDS011;13779;-33.886;151.198;2022-10-16T09:41:43;6.63;;;1.45;;
25990;SDS011;13779;-33.886;151.198;2022-10-16T09:44:24;5.35;;;1.20;;
25990;SDS011;13779;-33.886;151.198;2022-10-16T09:47:31;5.93;;;1.40;;
25990;SDS011;13779;-33.886;151.198;2022-10-16T09:50:03;7.20;;;1.70;;
25990;SDS011;13779;-33.886;151.198;2022-10-16T09:52:48;6.13;;;1.80;;
25990;SDS011;13779;-33.886;151.198;2022-10-16T09:55:18;7.32;;;2.17;;
25990;SDS011;13779;-33.886;151.198;2022-10-16T09:57:49;3.55;;;1.17;;
25990;SDS011;13779;-33.886;151.198;2022-10-16T10:00:20;8.43;;;1.55;;
25990;SDS011;13779;-33.886;151.198;2022-10-16T10:02:52;6.38;;;1.80;;
25990;SDS011;13779;-33.886;151.198;2022-10-16T10:05:24;10.15;;;1.83;;
25990;SDS011;13779;-33.886;151.198;2022-10-16T10:08:01;8.35;;;2.28;;
25990;SDS011;13779;-33.886;151.198;2022-10-16T10:10:41;7.50;;;1.48;;
25990;SDS011;13779;-33.886;151.198;2022-10-16T10:13:21;7.93;;;1.50;;
25990;SDS011;13779;-33.886;151.198;2022-10-16T10:15:55;10.45;;;1.85;;
25990;SDS011;13779;-33.886;151.198;2022-10-16T10:18:25;6.13;;;1.30;;
25990;SDS011;13779;-33.886;151.198;2022-10-16T10:20:59;8.40;;;1.45;;
25990;SDS011;13779;-33.886;151.198;2022-10-16T10:23:30;7.45;;;1.45;;
25990;SDS011;13779;-33.886;151.198;2022-10-16T10:26:34;5.18;;;1.20;;
25990;SDS011;13779;-33.886;151.198;2022-10-16T10:29:06;8.20;;;1.40;;
25990;SDS011;13779;-33.886;151.198;2022-10-16T10:37:02;6.53;;;1.33;;
25990;SDS011;13779;-33.886;151.198;2022-10-16T10:40:00;10.57;;;2.40;;
25990;SDS011;13779;-33.886;151.198;2022-10-16T10:43:24;6.63;;;1.48;;
25990;SDS011;13779;-33.886;151.198;2022-10-16T10:53:50;8.68;;;1.80;;
25990;SDS011;13779;-33.886;151.198;2022-10-16T10:59:28;11.25;;;2.40;;
25990;SDS011;13779;-33.886;151.198;2022-10-16T11:02:19;17.35;;;2.55;;
25990;SDS011;13779;-33.886;151.198;2022-10-16T11:07:39;16.50;;;2.65;;
25990;SDS011;13779;-33.886;151.198;2022-10-16T11:10:22;11.45;;;2.38;;
25990;SDS011;13779;-33.886;151.198;2022-10-16T11:13:17;19.52;;;3.10;;
25990;SDS011;13779;-33.886;151.198;2022-10-16T11:15:58;13.30;;;2.00;;
25990;SDS011;13779;-33.886;151.198;2022-10-16T11:21:18;12.77;;;3.25;;
25990;SDS011;13779;-33.886;151.198;2022-10-16T11:24:06;8.40;;;1.70;;
25990;SDS011;13779;-33.886;151.198;2022-10-16T11:27:07;10.80;;;2.10;;
25990;SDS011;13779;-33.886;151.198;2022-10-16T11:29:52;11.88;;;2.10;;
25990;SDS011;13779;-33.886;151.198;2022-10-16T11:32:38;17.27;;;2.00;;
25990;SDS011;13779;-33.886;151.198;2022-10-16T11:35:32;11.63;;;1.90;;
25990;SDS011;13779;-33.886;151.198;2022-10-16T11:38:37;16.35;;;2.40;;
25990;SDS011;13779;-33.886;151.198;2022-10-16T11:47:15;9.88;;;2.60;;
25990;SDS011;13779;-33.886;151.198;2022-10-16T11:50:45;19.50;;;3.05;;
25990;SDS011;13779;-33.886;151.198;2022-10-16T11:53:34;15.32;;;2.55;;
25990;SDS011;13779;-33.886;151.198;2022-10-16T11:56:17;16.58;;;2.80;;
25990;SDS011;13779;-33.886;151.198;2022-10-16T12:04:05;18.00;;;2.60;;
25990;SDS011;13779;-33.886;151.198;2022-10-16T12:06:55;14.35;;;2.50;;
25990;SDS011;13779;-33.886;151.198;2022-10-16T12:09:34;14.77;;;2.47;;
25990;SDS011;13779;-33.886;151.198;2022-10-16T12:18:07;13.93;;;3.25;;
25990;SDS011;13779;-33.886;151.198;2022-10-16T12:20:54;12.93;;;2.22;;
25990;SDS011;13779;-33.886;151.198;2022-10-16T12:23:36;15.52;;;2.47;;
25990;SDS011;13779;-33.886;151.198;2022-10-16T12:26:23;10.48;;;2.60;;
25990;SDS011;13779;-33.886;151.198;2022-10-16T12:28:55;14.93;;;2.92;;
25990;SDS011;13779;-33.886;151.198;2022-10-16T12:31:45;13.02;;;2.28;;
25990;SDS011;13779;-33.886;151.198;2022-10-16T12:34:45;20.08;;;3.25;;
25990;SDS011;13779;-33.886;151.198;2022-10-16T12:37:28;14.77;;;2.75;;
25990;SDS011;13779;-33.886;151.198;2022-10-16T12:40:46;19.67;;;2.60;;
25990;SDS011;13779;-33.886;151.198;2022-10-16T12:42:51;11.63;;;2.35;;
25990;SDS011;13779;-33.886;151.198;2022-10-16T12:48:01;12.73;;;2.65;;
25990;SDS011;13779;-33.886;151.198;2022-10-16T12:50:34;12.38;;;2.40;;
25990;SDS011;13779;-33.886;151.198;2022-10-16T12:53:22;10.52;;;2.60;;
25990;SDS011;13779;-33.886;151.198;2022-10-16T12:56:11;14.20;;;2.30;;
25990;SDS011;13779;-33.886;151.198;2022-10-16T12:59:01;14.23;;;2.80;;
25990;SDS011;13779;-33.886;151.198;2022-10-16T13:02:00;18.25;;;3.15;;
25990;SDS011;13779;-33.886;151.198;2022-10-16T13:10:04;14.07;;;2.13;;
25990;SDS011;13779;-33.886;151.198;2022-10-16T13:15:48;17.98;;;2.55;;
25990;SDS011;13779;-33.886;151.198;2022-10-16T13:18:38;11.48;;;2.30;;
25990;SDS011;13779;-33.886;151.198;2022-10-16T13:21:48;12.25;;;1.98;;
25990;SDS011;13779;-33.886;151.198;2022-10-16T13:29:54;14.77;;;2.60;;
25990;SDS011;13779;-33.886;151.198;2022-10-16T13:32:38;12.57;;;2.80;;
25990;SDS011;13779;-33.886;151.198;2022-10-16T13:35:20;19.02;;;2.30;;
25990;SDS011;13779;-33.886;151.198;2022-10-16T13:41:00;10.00;;;2.63;;
25990;SDS011;13779;-33.886;151.198;2022-10-16T13:46:15;16.70;;;2.50;;
25990;SDS011;13779;-33.886;151.198;2022-10-16T13:48:59;15.57;;;3.35;;
25990;SDS011;13779;-33.886;151.198;2022-10-16T13:51:32;16.63;;;2.83;;
25990;SDS011;13779;-33.886;151.198;2022-10-16T13:54:03;11.85;;;2.40;;
25990;SDS011;13779;-33.886;151.198;2022-10-16T13:56:33;13.77;;;2.57;;
25990;SDS011;13779;-33.886;151.198;2022-10-16T13:59:05;13.55;;;3.05;;
25990;SDS011;13779;-33.886;151.198;2022-10-16T14:01:52;18.38;;;3.80;;
25990;SDS011;13779;-33.886;151.198;2022-10-16T14:04:26;14.40;;;2.92;;
25990;SDS011;13779;-33.886;151.198;2022-10-16T14:07:01;13.90;;;3.20;;
25990;SDS011;13779;-33.886;151.198;2022-10-16T14:09:31;17.35;;;2.53;;
25990;SDS011;13779;-33.886;151.198;2022-10-16T14:12:07;12.90;;;2.97;;
25990;SDS011;13779;-33.886;151.198;2022-10-16T14:14:44;11.52;;;2.08;;
25990;SDS011;13779;-33.886;151.198;2022-10-16T14:17:26;14.82;;;2.40;;
25990;SDS011;13779;-33.886;151.198;2022-10-16T14:19:59;12.32;;;2.40;;
25990;SDS011;13779;-33.886;151.198;2022-10-16T14:22:37;8.93;;;1.83;;
25990;SDS011;13779;-33.886;151.198;2022-10-16T14:30:53;14.15;;;2.58;;
25990;SDS011;13779;-33.886;151.198;2022-10-16T14:38:35;14.80;;;2.03;;
25990;SDS011;13779;-33.886;151.198;2022-10-16T14:41:08;14.90;;;3.40;;
25990;SDS011;13779;-33.886;151.198;2022-10-16T14:43:42;13.75;;;1.85;;
25990;SDS011;13779;-33.886;151.198;2022-10-16T14:46:16;14.82;;;2.70;;
25990;SDS011;13779;-33.886;151.198;2022-10-16T14:48:57;16.75;;;2.45;;
25990;SDS011;13779;-33.886;151.198;2022-10-16T14:51:38;11.38;;;1.83;;
25990;SDS011;13779;-33.886;151.198;2022-10-16T14:54:11;18.25;;;3.25;;
25990;SDS011;13779;-33.886;151.198;2022-10-16T14:59:25;13.30;;;2.50;;
25990;SDS011;13779;-33.886;151.198;2022-10-16T15:02:46;19.45;;;2.85;;
25990;SDS011;13779;-33.886;151.198;2022-10-16T15:04:59;15.00;;;3.45;;
25990;SDS011;13779;-33.886;151.198;2022-10-16T15:07:43;19.88;;;3.25;;
25990;SDS011;13779;-33.886;151.198;2022-10-16T15:10:15;15.35;;;3.53;;
25990;SDS011;13779;-33.886;151.198;2022-10-16T15:12:47;18.63;;;4.40;;
25990;SDS011;13779;-33.886;151.198;2022-10-16T15:18:10;16.77;;;2.75;;
25990;SDS011;13779;-33.886;151.198;2022-10-16T15:20:43;21.65;;;3.15;;
25990;SDS011;13779;-33.886;151.198;2022-10-16T15:23:15;13.27;;;2.50;;
25990;SDS011;13779;-33.886;151.198;2022-10-16T15:25:50;13.57;;;2.67;;
25990;SDS011;13779;-33.886;151.198;2022-10-16T15:28:22;11.32;;;2.08;;
25990;SDS011;13779;-33.886;151.198;2022-10-16T15:30:54;10.40;;;2.08;;
25990;SDS011;13779;-33.886;151.198;2022-10-16T15:33:29;11.15;;;2.10;;
25990;SDS011;13779;-33.886;151.198;2022-10-16T15:36:04;10.13;;;2.00;;
25990;SDS011;13779;-33.886;151.198;2022-10-16T15:38:35;13.85;;;2.90;;
25990;SDS011;13779;-33.886;151.198;2022-10-16T15:41:05;21.67;;;3.20;;
25990;SDS011;13779;-33.886;151.198;2022-10-16T15:43:36;19.98;;;2.78;;
25990;SDS011;13779;-33.886;151.198;2022-10-16T15:46:08;14.23;;;2.20;;
25990;SDS011;13779;-33.886;151.198;2022-10-16T15:48:47;13.77;;;2.60;;
25990;SDS011;13779;-33.886;151.198;2022-10-16T15:51:18;11.55;;;2.65;;
25990;SDS011;13779;-33.886;151.198;2022-10-16T15:53:48;15.18;;;3.55;;
25990;SDS011;13779;-33.886;151.198;2022-10-16T15:56:19;13.17;;;3.30;;
25990;SDS011;13779;-33.886;151.198;2022-10-16T15:58:51;13.15;;;2.22;;
25990;SDS011;13779;-33.886;151.198;2022-10-16T16:01:22;11.82;;;2.13;;
25990;SDS011;13779;-33.886;151.198;2022-10-16T16:03:53;16.33;;;2.65;;
25990;SDS011;13779;-33.886;151.198;2022-10-16T16:06:23;15.15;;;2.88;;
25990;SDS011;13779;-33.886;151.198;2022-10-16T16:08:54;12.93;;;2.67;;
25990;SDS011;13779;-33.886;151.198;2022-10-16T16:11:24;20.80;;;2.75;;
25990;SDS011;13779;-33.886;151.198;2022-10-16T16:13:54;17.15;;;3.17;;
25990;SDS011;13779;-33.886;151.198;2022-10-16T16:16:25;21.23;;;3.67;;
25990;SDS011;13779;-33.886;151.198;2022-10-16T16:18:55;17.33;;;2.97;;
25990;SDS011;13779;-33.886;151.198;2022-10-16T16:21:26;20.30;;;2.73;;
25990;SDS011;13779;-33.886;151.198;2022-10-16T16:23:57;10.93;;;2.53;;
25990;SDS011;13779;-33.886;151.198;2022-10-16T16:26:28;18.45;;;2.55;;
25990;SDS011;13779;-33.886;151.198;2022-10-16T16:29:04;15.82;;;2.45;;
25990;SDS011;13779;-33.886;151.198;2022-10-16T16:31:35;16.52;;;2.50;;
25990;SDS011;13779;-33.886;151.198;2022-10-16T16:34:06;12.13;;;1.90;;
25990;SDS011;13779;-33.886;151.198;2022-10-16T16:36:37;8.25;;;2.08;;
25990;SDS011;13779;-33.886;151.198;2022-10-16T16:39:08;11.20;;;1.98;;
25990;SDS011;13779;-33.886;151.198;2022-10-16T16:41:39;10.35;;;2.53;;
25990;SDS011;13779;-33.886;151.198;2022-10-16T16:44:10;11.48;;;2.88;;
25990;SDS011;13779;-33.886;151.198;2022-10-16T16:46:41;12.80;;;2.13;;
25990;SDS011;13779;-33.886;151.198;2022-10-16T16:49:13;11.65;;;2.63;;